Kochka — FGA6596 — position and weather

sailwx.info

Track history (hours):
 
Tides and Currents Weather Stations Pressure Air Temp Water Temp Dewpoint Dewpoint Depression Visibility Wind Speed Wind Dir Waves Ship Positions

Kochka

Last reported at 2017-Aug-21 18:58 UTC. Time now 2017-Sep-19 13:40 UTC.
Position N 47°44' W 003°21'.
Warning: this ship's position is 28 days out of date.

Length 12 m.

Type: Sailing vessel. MMSI: 227104720.

Date/timePositionNaut miles runAvg speedWind from/ knotsBaromVisibWave heightAir tempDewpointWater temp
2017-Aug-21 18:58N 47°44' W 003°21'0 0.0
2017-Aug-21 18:28N 47°44' W 003°21'0 0.0
2017-Aug-21 17:58N 47°44' W 003°21'0 0.0
2017-Aug-21 17:25N 47°44' W 003°21'0 0.0
2017-Aug-21 16:58N 47°44' W 003°21'1 1.2
2017-Aug-21 16:30N 47°43' W 003°21'2 4.9
2017-Aug-21 16:00N 47°41' W 003°22'2 4.8
2017-Aug-21 15:30N 47°38' W 003°22'2 4.8
2017-Aug-21 15:00N 47°36' W 003°20'3 5.1
2017-Aug-21 14:25N 47°33' W 003°19'2 4.9
2017-Aug-21 13:58N 47°31' W 003°17'5 4.7
2017-Aug-21 12:57N 47°27' W 003°14'2 4.0
2017-Aug-21 12:29N 47°25' W 003°13'3 0.1
2017-Aug-20 11:35N 47°23' W 003°13'0 3.5
2017-Aug-20 11:27N 47°23' W 003°12'2 3.9
2017-Aug-20 11:00N 47°23' W 003°10'4 4.2
2017-Aug-20 09:55N 47°23' W 003°03'9 0.2
2017-Aug-18 09:57N 47°31' W 002°59'3 5.8
2017-Aug-18 09:30N 47°33' W 003°00'2 0.0
2017-Aug-16 11:58N 47°35' W 003°01'  
Track history (hours):
 
Tides and Currents Weather Stations Pressure Air Temp Water Temp Dewpoint Dewpoint Depression Visibility Wind Speed Wind Dir Waves Ship Positions

Kochka

Last reported at 2017-Aug-21 18:58 UTC. Time now 2017-Sep-19 13:40 UTC.
Position N 47°44' W 003°21'.
Warning: this ship's position is 28 days out of date.

Length 12 m.

Type: Sailing vessel. MMSI: 227104720.

Date/timePositionNaut miles runAvg speedWind from/ knotsBaromVisibWave heightAir tempDewpointWater temp
2017-Aug-21 18:58N 47°44' W 003°21'0 0.0
2017-Aug-21 18:28N 47°44' W 003°21'0 0.0
2017-Aug-21 17:58N 47°44' W 003°21'0 0.0
2017-Aug-21 17:25N 47°44' W 003°21'0 0.0
2017-Aug-21 16:58N 47°44' W 003°21'1 1.2
2017-Aug-21 16:30N 47°43' W 003°21'2 4.9
2017-Aug-21 16:00N 47°41' W 003°22'2 4.8
2017-Aug-21 15:30N 47°38' W 003°22'2 4.8
2017-Aug-21 15:00N 47°36' W 003°20'3 5.1
2017-Aug-21 14:25N 47°33' W 003°19'2 4.9
2017-Aug-21 13:58N 47°31' W 003°17'5 4.7
2017-Aug-21 12:57N 47°27' W 003°14'2 4.0
2017-Aug-21 12:29N 47°25' W 003°13'3 0.1
2017-Aug-20 11:35N 47°23' W 003°13'0 3.5
2017-Aug-20 11:27N 47°23' W 003°12'2 3.9
2017-Aug-20 11:00N 47°23' W 003°10'4 4.2
2017-Aug-20 09:55N 47°23' W 003°03'9 0.2
2017-Aug-18 09:57N 47°31' W 002°59'3 5.8
2017-Aug-18 09:30N 47°33' W 003°00'2 0.0
2017-Aug-16 11:58N 47°35' W 003°01'  

Dump ship's entire track history